createdAt,value
2022-10-01T00:02:28.614Z,28.71
2022-10-01T00:05:20.351Z,28.77
2022-10-01T00:08:02.628Z,28.71
2022-10-01T00:10:52.302Z,28.78
2022-10-01T00:13:41.303Z,28.78
2022-10-01T00:16:27.597Z,28.77
2022-10-01T00:19:16.203Z,28.76
2022-10-01T00:22:04.588Z,28.73
2022-10-01T00:24:47.285Z,28.68
2022-10-01T00:27:30.556Z,28.69
2022-10-01T00:30:20.216Z,28.69
2022-10-01T00:33:08.607Z,28.72
2022-10-01T00:35:51.290Z,28.68
2022-10-01T00:38:41.394Z,28.65
2022-10-01T00:41:25.311Z,28.66
2022-10-01T00:44:30.321Z,28.65
2022-10-01T00:47:47.303Z,28.63
2022-10-01T00:50:35.177Z,28.60
2022-10-01T00:53:26.326Z,28.63
2022-10-01T00:56:22.150Z,28.57
2022-10-01T00:59:11.328Z,28.53
2022-10-01T01:01:53.794Z,28.52
2022-10-01T01:04:42.293Z,28.60
2022-10-01T01:07:24.721Z,28.70
2022-10-01T01:10:15.198Z,28.75
2022-10-01T01:13:03.598Z,28.75
2022-10-01T01:15:53.324Z,28.69
2022-10-01T01:19:06.312Z,28.77
2022-10-01T01:22:01.298Z,28.79
2022-10-01T01:25:07.785Z,28.81
2022-10-01T01:28:17.389Z,28.80
2022-10-01T01:31:11.618Z,28.80
2022-10-01T01:33:58.295Z,28.87
2022-10-01T01:36:48.246Z,28.92
2022-10-01T01:39:41.299Z,28.93
2022-10-01T01:42:38.303Z,28.97
2022-10-01T01:45:33.360Z,29.02
2022-10-01T01:48:17.859Z,29.01
2022-10-01T01:51:28.313Z,28.85
2022-10-01T01:54:20.109Z,29.15
2022-10-01T01:57:17.338Z,28.99
2022-10-01T01:59:59.472Z,28.80
2022-10-01T02:02:50.491Z,28.99
2022-10-01T02:05:49.599Z,29.18
2022-10-01T02:08:43.347Z,29.24
2022-10-01T02:11:43.859Z,29.19
2022-10-01T02:14:40.299Z,29.45
2022-10-01T02:18:19.610Z,29.61
2022-10-01T02:21:29.183Z,29.70
2022-10-01T02:24:47.604Z,29.72
2022-10-01T02:27:45.354Z,29.75
2022-10-01T02:30:36.293Z,30.03
2022-10-01T02:33:21.587Z,30.10
2022-10-01T02:36:16.307Z,30.24
2022-10-01T02:39:02.615Z,30.38
2022-10-01T02:41:54.275Z,30.21
2022-10-01T02:44:50.280Z,30.12
2022-10-01T02:47:45.693Z,30.45
2022-10-01T02:50:34.314Z,30.67
2022-10-01T02:53:49.312Z,30.54
2022-10-01T02:56:56.049Z,30.35
2022-10-01T02:59:48.329Z,30.45
2022-10-01T03:02:30.704Z,30.67
2022-10-01T03:05:19.310Z,30.81
2022-10-01T03:08:01.563Z,30.95
2022-10-01T03:10:50.211Z,30.90
2022-10-01T03:13:32.555Z,30.87
2022-10-01T03:16:21.393Z,30.91
2022-10-01T03:19:03.609Z,31.00
2022-10-01T03:21:52.313Z,31.02
2022-10-01T03:24:34.580Z,31.14
2022-10-01T03:27:23.277Z,31.07
2022-10-01T03:30:06.770Z,31.22
2022-10-01T03:32:55.270Z,31.49
2022-10-01T03:35:44.203Z,31.19
2022-10-01T03:38:32.599Z,31.84
2022-10-01T03:41:14.297Z,31.78
2022-10-01T03:44:00.400Z,31.84
2022-10-01T03:46:49.178Z,31.85
2022-10-01T03:49:38.213Z,32.12
2022-10-01T03:52:21.470Z,32.26
2022-10-01T03:55:10.211Z,32.15
2022-10-01T03:58:06.135Z,32.38
2022-10-01T04:00:57.303Z,32.45
2022-10-01T04:03:40.987Z,32.47
2022-10-01T04:06:31.341Z,32.60
2022-10-01T04:09:13.722Z,32.61
2022-10-01T04:12:03.295Z,32.72
2022-10-01T04:14:45.587Z,33.02
2022-10-01T04:17:34.301Z,33.27
2022-10-01T04:20:24.194Z,33.60
2022-10-01T04:23:13.362Z,33.71
2022-10-01T04:25:55.574Z,33.70
2022-10-01T04:28:44.295Z,34.02
2022-10-01T04:31:26.808Z,34.25
2022-10-01T04:34:16.217Z,35.07
2022-10-01T04:37:05.288Z,35.05
2022-10-01T04:39:54.304Z,35.59
2022-10-01T04:42:36.595Z,35.37
2022-10-01T04:45:25.277Z,35.77
2022-10-01T04:48:07.814Z,36.04
2022-10-01T04:50:56.273Z,36.25
2022-10-01T04:53:38.737Z,36.65
2022-10-01T04:56:27.305Z,36.34
2022-10-01T04:59:22.219Z,36.80
2022-10-01T05:02:11.311Z,36.88
2022-10-01T05:04:53.563Z,37.02
2022-10-01T05:07:43.294Z,36.26
2022-10-01T05:10:29.739Z,36.76
2022-10-01T05:13:19.226Z,36.81
2022-10-01T05:16:03.398Z,36.58
2022-10-01T05:18:52.301Z,36.48
2022-10-01T05:21:34.863Z,36.87
2022-10-01T05:24:34.293Z,37.05
2022-10-01T05:27:16.618Z,37.25
2022-10-01T05:30:05.289Z,36.60
2022-10-01T05:32:47.670Z,36.29
2022-10-01T05:35:37.276Z,36.62
2022-10-01T05:38:19.683Z,36.39
2022-10-01T05:41:08.514Z,36.23
2022-10-01T05:43:50.750Z,36.81
2022-10-01T05:46:40.333Z,37.06
2022-10-01T05:49:22.707Z,36.58
2022-10-01T05:52:12.347Z,36.94
2022-10-01T05:54:54.603Z,37.11
2022-10-01T05:57:43.359Z,37.57
2022-10-01T06:00:25.671Z,37.37
2022-10-01T06:03:16.502Z,37.18
2022-10-01T06:05:58.753Z,36.93
2022-10-01T06:08:47.333Z,37.20
2022-10-01T06:11:29.873Z,37.19
2022-10-01T06:14:18.331Z,37.00
2022-10-01T06:17:03.627Z,36.91
2022-10-01T06:19:52.233Z,37.00
2022-10-01T06:22:35.094Z,36.91
2022-10-01T06:25:24.296Z,37.00
2022-10-01T06:28:14.488Z,36.88
2022-10-01T06:31:03.334Z,36.73
2022-10-01T06:33:45.647Z,36.71
2022-10-01T06:36:34.351Z,37.19
2022-10-01T06:39:16.865Z,37.43
2022-10-01T06:42:05.282Z,37.06
2022-10-01T06:44:54.295Z,36.69
2022-10-01T06:47:43.285Z,37.11
2022-10-01T06:50:25.738Z,36.74
2022-10-01T06:53:14.301Z,37.14
2022-10-01T06:55:56.697Z,37.09
2022-10-01T06:58:45.366Z,36.33
2022-10-01T07:01:34.672Z,36.27
2022-10-01T07:04:22.666Z,36.95
2022-10-01T07:07:05.371Z,36.73
2022-10-01T07:09:53.826Z,36.79
2022-10-01T07:12:36.330Z,36.95
2022-10-01T07:15:27.339Z,36.86
2022-10-01T07:18:12.516Z,37.06
2022-10-01T07:21:01.274Z,36.23
2022-10-01T07:23:51.362Z,36.71
2022-10-01T07:26:40.646Z,37.06
2022-10-01T07:29:22.332Z,36.93
2022-10-01T07:32:09.645Z,36.26
2022-10-01T07:34:58.704Z,36.60
2022-10-01T07:37:46.600Z,36.40
2022-10-01T07:40:29.286Z,36.66
2022-10-01T07:43:11.788Z,36.62
2022-10-01T07:46:02.405Z,36.89
2022-10-01T07:48:54.281Z,36.58
2022-10-01T07:51:44.341Z,36.72
2022-10-01T07:54:27.563Z,36.68
2022-10-01T07:57:16.315Z,36.42
2022-10-01T08:00:05.804Z,36.76
2022-10-01T08:02:47.385Z,36.31
2022-10-01T08:05:43.381Z,36.63
2022-10-01T08:08:25.819Z,36.62
2022-10-01T08:11:17.367Z,36.95
2022-10-01T08:14:06.260Z,36.87
2022-10-01T08:16:55.457Z,36.74
2022-10-01T08:19:38.620Z,36.71
2022-10-01T08:22:27.237Z,36.91
2022-10-01T08:25:09.668Z,37.04
2022-10-01T08:27:58.611Z,36.63
2022-10-01T08:30:47.311Z,36.74
2022-10-01T08:33:29.595Z,36.56
2022-10-01T08:36:20.358Z,36.53
2022-10-01T08:39:10.234Z,36.84
2022-10-01T08:42:17.068Z,36.87
2022-10-01T08:45:02.920Z,36.83
2022-10-01T08:47:57.298Z,36.60
2022-10-01T08:51:01.802Z,36.57
2022-10-01T08:53:52.300Z,36.44
2022-10-01T08:56:46.442Z,36.27
2022-10-01T09:00:16.402Z,36.52
2022-10-01T09:02:59.713Z,36.06
2022-10-01T09:05:47.247Z,36.43
2022-10-01T09:09:02.678Z,36.62
2022-10-01T09:12:23.338Z,36.71
2022-10-01T09:15:38.266Z,36.55
2022-10-01T09:18:45.187Z,36.80
2022-10-01T09:21:55.259Z,36.49
2022-10-01T09:25:01.296Z,36.81
2022-10-01T09:27:46.837Z,36.02
2022-10-01T09:30:37.260Z,36.45
2022-10-01T09:33:34.412Z,36.69
2022-10-01T09:36:53.600Z,36.60
2022-10-01T09:39:48.274Z,36.67
2022-10-01T09:42:31.770Z,36.66
2022-10-01T09:45:21.218Z,36.49
2022-10-01T09:48:27.688Z,36.30
2022-10-01T09:51:21.296Z,36.54
2022-10-01T09:54:19.435Z,36.33
2022-10-01T09:57:15.346Z,36.63
2022-10-01T10:00:15.728Z,36.26
2022-10-01T10:03:00.510Z,36.37
2022-10-01T10:05:47.711Z,36.35
2022-10-01T10:08:53.197Z,36.24
2022-10-01T10:11:42.187Z,35.85
2022-10-01T10:14:29.741Z,36.40
2022-10-01T10:17:24.244Z,36.31
2022-10-01T10:20:06.634Z,36.17
2022-10-01T10:22:57.298Z,36.13
2022-10-01T10:25:39.781Z,36.02
2022-10-01T10:28:33.556Z,36.16
2022-10-01T10:31:32.420Z,35.90
2022-10-01T10:34:32.314Z,35.91
2022-10-01T10:37:29.301Z,35.73
2022-10-01T10:40:32.613Z,35.45
2022-10-01T10:43:24.469Z,35.34
2022-10-01T10:46:16.421Z,35.78
2022-10-01T10:52:16.309Z,35.86
2022-10-01T10:55:00.508Z,35.74
2022-10-01T10:57:49.408Z,35.76
2022-10-01T11:00:37.617Z,35.58
2022-10-01T11:03:25.327Z,35.39
2022-10-01T11:06:23.159Z,35.70
2022-10-01T11:09:16.270Z,35.61
2022-10-01T11:12:10.623Z,35.61
2022-10-01T11:15:22.343Z,35.57
2022-10-01T11:18:28.286Z,35.35
2022-10-01T11:21:43.669Z,35.43
2022-10-01T11:25:13.299Z,35.39
2022-10-01T11:28:30.367Z,35.32
2022-10-01T11:31:38.647Z,35.20
2022-10-01T11:34:57.280Z,35.05
2022-10-01T11:38:04.034Z,35.02
2022-10-01T11:40:58.173Z,35.08
2022-10-01T11:44:11.197Z,35.05
2022-10-01T11:47:28.267Z,34.96
2022-10-01T11:50:46.274Z,34.68
2022-10-01T11:53:46.296Z,34.58
2022-10-01T11:56:53.075Z,34.64
2022-10-01T11:59:52.318Z,34.41
2022-10-01T12:03:12.344Z,34.46
2022-10-01T12:05:58.010Z,34.56
2022-10-01T12:08:50.312Z,34.63
2022-10-01T12:12:00.243Z,34.41
2022-10-01T12:14:52.866Z,34.20
2022-10-01T12:17:53.263Z,34.03
2022-10-01T12:20:42.595Z,33.84
2022-10-01T12:23:39.258Z,33.79
2022-10-01T12:26:51.883Z,33.72
2022-10-01T12:29:52.378Z,33.59
2022-10-01T12:33:06.262Z,33.80
2022-10-01T12:36:25.876Z,33.74
2022-10-01T12:39:27.580Z,33.59
2022-10-01T12:42:39.894Z,33.52
2022-10-01T12:45:36.619Z,33.39
2022-10-01T12:48:52.372Z,33.30
2022-10-01T12:52:19.189Z,33.28
2022-10-01T12:55:29.380Z,33.19
2022-10-01T12:58:35.710Z,33.02
2022-10-01T13:01:30.808Z,32.94
2022-10-01T13:04:48.642Z,32.88
2022-10-01T13:07:44.278Z,32.81
2022-10-01T13:11:03.466Z,32.87
2022-10-01T13:13:54.342Z,32.83
2022-10-01T13:16:57.410Z,32.70
2022-10-01T13:19:59.406Z,32.81
2022-10-01T13:23:15.689Z,32.75
2022-10-01T13:26:09.354Z,32.68
2022-10-01T13:29:16.339Z,32.68
2022-10-01T13:32:12.971Z,32.57
2022-10-01T13:34:57.904Z,32.55
2022-10-01T13:37:48.372Z,32.66
2022-10-01T13:40:34.692Z,32.50
2022-10-01T13:43:31.438Z,32.63
2022-10-01T13:46:18.673Z,32.58
2022-10-01T13:49:30.298Z,32.66
2022-10-01T13:52:36.117Z,32.57
2022-10-01T13:55:38.172Z,32.49
2022-10-01T13:58:34.811Z,32.53
2022-10-01T14:01:28.378Z,32.31
2022-10-01T14:04:49.979Z,32.25
2022-10-01T14:07:45.292Z,32.22
2022-10-01T14:10:27.711Z,32.16
2022-10-01T14:13:38.903Z,32.11
2022-10-01T14:16:23.261Z,32.07
2022-10-01T14:19:13.393Z,32.17
2022-10-01T14:22:28.794Z,32.17
2022-10-01T14:25:57.826Z,31.98
2022-10-01T14:29:09.192Z,32.09
2022-10-01T14:32:17.573Z,32.08
2022-10-01T14:35:20.358Z,31.89
2022-10-01T14:38:19.352Z,32.07
2022-10-01T14:41:10.330Z,31.77
2022-10-01T14:43:52.735Z,31.80
2022-10-01T14:46:41.642Z,31.82
2022-10-01T14:49:36.330Z,31.89
2022-10-01T14:52:28.572Z,31.78
2022-10-01T14:55:15.268Z,31.74
2022-10-01T14:58:05.307Z,31.70
2022-10-01T15:00:59.818Z,31.35
2022-10-01T15:03:51.326Z,31.38
2022-10-01T15:06:42.329Z,31.46
2022-10-01T15:09:32.342Z,31.46
2022-10-01T15:12:21.240Z,31.32
2022-10-01T15:15:10.344Z,31.32
2022-10-01T15:18:00.247Z,31.25
2022-10-01T15:21:00.246Z,31.24
2022-10-01T15:23:44.583Z,31.22
2022-10-01T15:26:37.497Z,31.20
2022-10-01T15:29:30.244Z,31.22
2022-10-01T15:32:25.452Z,31.28
2022-10-01T15:35:10.886Z,31.18
2022-10-01T15:38:09.337Z,31.20
2022-10-01T15:41:13.929Z,31.20
2022-10-01T15:44:12.277Z,31.07
2022-10-01T15:46:54.723Z,31.02
2022-10-01T15:49:43.349Z,30.92
2022-10-01T15:52:52.088Z,31.02
2022-10-01T15:55:57.417Z,30.90
2022-10-01T15:58:46.629Z,30.95
2022-10-01T16:01:46.367Z,30.84
2022-10-01T16:04:29.656Z,30.85
2022-10-01T16:07:30.543Z,30.82
2022-10-01T16:10:46.718Z,30.73
2022-10-01T16:13:46.444Z,30.60
2022-10-01T16:16:31.907Z,30.67
2022-10-01T16:19:31.245Z,30.65
2022-10-01T16:22:32.299Z,30.66
2022-10-01T16:25:32.265Z,30.56
2022-10-01T16:28:48.255Z,30.50
2022-10-01T16:31:39.376Z,30.52
2022-10-01T16:34:26.575Z,30.49
2022-10-01T16:37:17.274Z,30.40
2022-10-01T16:39:59.759Z,30.39
2022-10-01T16:42:50.332Z,30.47
2022-10-01T16:45:44.301Z,30.38
2022-10-01T16:48:26.858Z,30.48
2022-10-01T16:51:15.428Z,30.48
2022-10-01T16:54:05.602Z,30.25
2022-10-01T16:56:52.259Z,29.92
2022-10-01T16:59:35.218Z,29.92
2022-10-01T17:02:29.494Z,29.99
2022-10-01T17:05:29.650Z,29.97
2022-10-01T17:08:18.235Z,29.85
2022-10-01T17:11:12.504Z,29.89
2022-10-01T17:14:01.205Z,29.86
2022-10-01T17:16:44.236Z,29.86
2022-10-01T17:19:33.680Z,29.87
2022-10-01T17:22:15.540Z,29.77
2022-10-01T17:25:04.336Z,29.77
2022-10-01T17:27:54.366Z,29.71
2022-10-01T17:30:37.763Z,29.73
2022-10-01T17:33:27.366Z,29.76
2022-10-01T17:36:16.368Z,29.76
2022-10-01T17:39:05.337Z,29.74
2022-10-01T17:41:54.275Z,29.66
2022-10-01T17:44:36.744Z,29.74
2022-10-01T17:47:25.169Z,29.64
2022-10-01T17:50:15.236Z,29.76
2022-10-01T17:53:09.700Z,29.61
2022-10-01T17:55:54.388Z,29.62
2022-10-01T17:58:39.555Z,29.65
2022-10-01T18:01:33.292Z,29.63
2022-10-01T18:04:22.682Z,29.62
2022-10-01T18:07:06.289Z,29.57
2022-10-01T18:09:55.658Z,29.53
2022-10-01T18:12:38.280Z,29.58
2022-10-01T18:15:27.816Z,29.58
2022-10-01T18:19:45.775Z,29.55
2022-10-01T18:21:21.353Z,29.55
2022-10-01T18:24:05.013Z,29.52
2022-10-01T18:26:54.391Z,29.47
2022-10-01T18:29:36.733Z,29.45
2022-10-01T18:32:31.226Z,29.37
2022-10-01T18:35:24.800Z,29.35
2022-10-01T18:38:36.268Z,29.25
2022-10-01T18:41:34.722Z,29.34
2022-10-01T18:44:26.259Z,29.46
2022-10-01T18:47:35.697Z,29.40
2022-10-01T18:50:40.273Z,29.26
2022-10-01T18:53:45.938Z,29.29
2022-10-01T18:56:43.153Z,29.31
2022-10-01T18:59:46.255Z,29.29
2022-10-01T19:02:31.214Z,29.30
2022-10-01T19:05:58.277Z,29.24
2022-10-01T19:08:52.629Z,29.18
2022-10-01T19:11:59.257Z,29.24
2022-10-01T19:15:11.255Z,29.26
2022-10-01T19:18:14.671Z,29.18
2022-10-01T19:21:37.163Z,29.19
2022-10-01T19:24:34.683Z,29.14
2022-10-01T19:27:35.251Z,29.12
2022-10-01T19:30:24.673Z,29.14
2022-10-01T19:33:20.303Z,29.13
2022-10-01T19:36:07.944Z,29.12
2022-10-01T19:39:02.322Z,29.12
2022-10-01T19:41:57.672Z,29.11
2022-10-01T19:44:53.203Z,29.10
2022-10-01T19:47:53.591Z,29.11
2022-10-01T19:50:47.147Z,29.08
2022-10-01T19:53:48.259Z,29.05
2022-10-01T19:56:42.971Z,29.03
2022-10-01T19:59:27.176Z,29.04
2022-10-01T20:02:41.963Z,29.08
2022-10-01T20:05:30.186Z,29.08
2022-10-01T20:08:28.805Z,29.13
2022-10-01T20:11:29.174Z,29.11
2022-10-01T20:14:41.529Z,29.11
2022-10-01T20:17:52.273Z,29.05
2022-10-01T20:21:04.581Z,29.06
2022-10-01T20:23:56.260Z,29.07
2022-10-01T20:27:14.152Z,29.07
2022-10-01T20:30:15.537Z,29.01
2022-10-01T20:33:18.250Z,29.01
2022-10-01T20:36:34.638Z,29.03
2022-10-01T20:39:27.580Z,29.04
2022-10-01T20:42:26.243Z,29.07
2022-10-01T20:45:17.250Z,29.03
2022-10-01T20:48:20.949Z,29.11
2022-10-01T20:51:27.265Z,29.04
2022-10-01T20:54:17.808Z,29.01
2022-10-01T20:57:17.249Z,28.96
2022-10-01T21:00:04.717Z,28.88
2022-10-01T21:02:59.183Z,28.82
2022-10-01T21:05:50.811Z,28.86
2022-10-01T21:09:15.209Z,28.81
2022-10-01T21:12:27.533Z,28.87
2022-10-01T21:15:25.299Z,28.82
2022-10-01T21:18:35.547Z,28.81
2022-10-01T21:21:41.238Z,28.98
2022-10-01T21:24:35.534Z,29.05
2022-10-01T21:27:36.247Z,29.16
2022-10-01T21:30:21.592Z,29.20
2022-10-01T21:33:23.237Z,29.31
2022-10-01T21:36:10.057Z,29.22
2022-10-01T21:39:04.271Z,29.12
2022-10-01T21:41:56.630Z,29.04
2022-10-01T21:44:54.247Z,29.15
2022-10-01T21:48:06.142Z,29.21
2022-10-01T21:51:02.254Z,28.89
2022-10-01T21:54:03.100Z,29.03
2022-10-01T21:57:13.300Z,29.04
2022-10-01T22:00:20.039Z,29.14
2022-10-01T22:03:27.241Z,28.87
2022-10-01T22:06:37.284Z,28.90
2022-10-01T22:09:40.319Z,28.95
2022-10-01T22:12:24.105Z,28.94
2022-10-01T22:15:31.275Z,28.84
2022-10-01T22:18:19.544Z,28.79
2022-10-01T22:21:13.176Z,28.88
2022-10-01T22:24:18.157Z,29.00
2022-10-01T22:27:26.298Z,28.62
2022-10-01T22:30:43.524Z,29.01
2022-10-01T22:33:48.246Z,28.94
2022-10-01T22:36:42.570Z,28.79
2022-10-01T22:39:42.154Z,29.01
2022-10-01T22:42:31.594Z,28.87
2022-10-01T22:45:32.297Z,28.90
2022-10-01T22:48:48.520Z,28.87
2022-10-01T22:51:36.242Z,28.66
2022-10-01T22:54:51.550Z,28.82
2022-10-01T22:57:58.289Z,28.81
2022-10-01T23:01:12.261Z,28.80
2022-10-01T23:04:29.240Z,28.59
2022-10-01T23:07:25.224Z,28.51
2022-10-01T23:10:32.240Z,28.59
2022-10-01T23:13:37.063Z,28.66
2022-10-01T23:16:40.422Z,28.52
2022-10-01T23:19:41.575Z,28.92
2022-10-01T23:22:41.249Z,28.65
2022-10-01T23:25:36.974Z,28.77
2022-10-01T23:28:55.233Z,28.60
2022-10-01T23:31:46.308Z,28.67
2022-10-01T23:34:47.292Z,28.55
2022-10-01T23:38:18.686Z,28.16
2022-10-01T23:41:02.295Z,28.28
2022-10-01T23:43:50.632Z,27.81
2022-10-01T23:46:45.162Z,28.19
2022-10-01T23:49:38.566Z,27.71
2022-10-01T23:52:41.260Z,28.27
2022-10-01T23:56:12.156Z,28.12
2022-10-01T23:59:08.240Z,27.96
